Time;durP1;ratioP1;P1;durP2;ratioP2;P2;SDS_P1;SDS_P2;PMS_P1;PMS_P2;Temp;Humidity;BMP_temperature;BMP_pressure;BME280_temperature;BME280_humidity;BME280_pressure;Samples;Min_cycle;Max_cycle;Signal;HPM_P1;HPM_P2
2021/10/10 00:01:47;;;;;;;10.40;8.35;;;10.10;99.90;;;;;;4985590;28;20032;-47
2021/10/10 00:04:12;;;;;;;12.15;8.35;;;10.10;99.90;;;;;;5053311;28;20022;-46
2021/10/10 00:06:38;;;;;;;13.68;8.65;;;10.00;99.90;;;;;;5001441;28;20385;-47
2021/10/10 00:09:04;;;;;;;11.63;8.95;;;10.10;99.90;;;;;;5053465;28;20457;-46
2021/10/10 00:11:30;;;;;;;10.73;8.57;;;10.10;99.90;;;;;;5018302;28;20095;-47
2021/10/10 00:13:56;;;;;;;12.93;10.68;;;10.10;99.90;;;;;;5053137;28;20492;-47
2021/10/10 00:16:22;;;;;;;24.08;16.17;;;10.00;99.90;;;;;;5034686;28;20048;-46
2021/10/10 00:18:48;;;;;;;17.67;11.88;;;10.00;99.90;;;;;;5018234;28;20040;-46
2021/10/10 00:21:14;;;;;;;30.08;19.33;;;9.90;99.90;;;;;;5053030;28;20154;-47
2021/10/10 00:23:40;;;;;;;18.42;12.90;;;10.00;99.90;;;;;;5053247;28;20036;-47
2021/10/10 00:26:06;;;;;;;11.23;9.55;;;10.00;99.90;;;;;;5053105;28;20037;-47
2021/10/10 00:28:32;;;;;;;12.82;9.60;;;10.00;99.90;;;;;;5052977;28;20487;-47
2021/10/10 00:30:57;;;;;;;13.15;9.63;;;10.00;99.90;;;;;;5053200;28;20032;-46
2021/10/10 00:33:27;;;;;;;12.68;9.13;;;10.00;99.90;;;;;;5034737;28;20157;-46
2021/10/10 00:35:53;;;;;;;12.55;9.70;;;10.00;99.90;;;;;;5010881;28;20054;-47
2021/10/10 00:38:19;;;;;;;14.38;9.60;;;9.80;99.90;;;;;;5011273;28;20044;-47
2021/10/10 00:40:46;;;;;;;10.93;8.48;;;9.80;99.90;;;;;;5011305;28;20077;-46
2021/10/10 00:43:11;;;;;;;13.73;9.88;;;9.60;99.90;;;;;;5012719;28;20065;-48
2021/10/10 00:45:37;;;;;;;14.57;10.68;;;9.80;99.90;;;;;;4998315;28;20158;-46
2021/10/10 00:48:04;;;;;;;12.48;10.18;;;9.80;99.90;;;;;;5014874;28;20177;-46
2021/10/10 00:50:31;;;;;;;14.98;10.63;;;9.90;99.90;;;;;;4981654;28;20088;-47
2021/10/10 00:52:58;;;;;;;13.32;10.48;;;9.80;99.90;;;;;;5014560;28;20093;-47
2021/10/10 00:55:26;;;;;;;15.15;11.05;;;9.90;99.90;;;;;;5014527;28;20077;-46
2021/10/10 00:57:53;;;;;;;15.02;10.80;;;9.70;99.90;;;;;;5014775;28;20026;-46
2021/10/10 01:00:22;;;;;;;13.93;10.93;;;9.80;99.90;;;;;;5014363;28;20112;-47
2021/10/10 01:02:50;;;;;;;17.15;11.25;;;9.80;99.90;;;;;;5014728;28;20062;-46
2021/10/10 01:05:16;;;;;;;14.57;11.32;;;9.80;99.90;;;;;;5014165;28;20042;-46
2021/10/10 01:07:42;;;;;;;17.58;10.85;;;9.70;99.90;;;;;;5033019;28;20052;-46
2021/10/10 01:10:11;;;;;;;13.15;10.07;;;9.80;99.90;;;;;;5001553;28;20120;-47
2021/10/10 01:12:38;;;;;;;14.82;10.32;;;9.80;99.90;;;;;;5036458;28;20121;-47
2021/10/10 01:15:05;;;;;;;15.00;10.55;;;9.70;99.90;;;;;;5036195;28;20528;-46
2021/10/10 01:17:30;;;;;;;17.50;10.93;;;9.70;99.90;;;;;;4968928;28;20040;-47
2021/10/10 01:19:57;;;;;;;16.83;10.60;;;9.70;99.90;;;;;;5001474;28;20037;-46
2021/10/10 01:22:23;;;;;;;18.33;11.50;;;9.70;99.90;;;;;;5001704;28;20029;-46
2021/10/10 01:24:49;;;;;;;14.65;10.63;;;9.70;99.90;;;;;;5001388;28;20057;-46
2021/10/10 01:27:15;;;;;;;20.00;10.88;;;9.70;99.90;;;;;;5001101;28;20037;-47
2021/10/10 01:29:41;;;;;;;19.52;10.57;;;9.80;99.90;;;;;;5036116;28;20021;-46
2021/10/10 01:32:07;;;;;;;17.58;11.27;;;9.80;99.90;;;;;;5036224;28;20071;-47
2021/10/10 01:34:33;;;;;;;18.40;11.15;;;9.80;99.90;;;;;;5035934;28;20068;-47
2021/10/10 01:37:00;;;;;;;19.80;12.02;;;9.70;99.90;;;;;;5017319;28;20033;-46
2021/10/10 01:39:28;;;;;;;19.27;11.88;;;9.90;99.90;;;;;;5017777;28;20512;-46
2021/10/10 01:41:53;;;;;;;14.38;10.40;;;9.80;99.90;;;;;;5035812;28;20030;-47
2021/10/10 01:44:19;;;;;;;13.73;10.75;;;9.80;99.90;;;;;;5000478;28;20477;-46
2021/10/10 01:46:45;;;;;;;16.77;11.80;;;9.80;99.90;;;;;;5035656;28;20064;-47
2021/10/10 01:49:11;;;;;;;18.55;10.05;;;9.80;99.90;;;;;;5035985;28;20060;-46
2021/10/10 01:51:38;;;;;;;17.20;10.82;;;9.80;99.90;;;;;;5035428;28;20036;-46
2021/10/10 01:54:04;;;;;;;12.65;10.13;;;9.80;99.90;;;;;;5047058;28;20045;-47
2021/10/10 01:56:30;;;;;;;15.70;9.55;;;9.80;99.90;;;;;;5055378;28;20025;-47
2021/10/10 01:58:56;;;;;;;16.85;10.30;;;9.80;99.90;;;;;;5055138;28;20357;-47
2021/10/10 02:01:22;;;;;;;12.50;9.48;;;9.70;99.90;;;;;;5036753;28;20041;-47
2021/10/10 02:03:47;;;;;;;15.30;9.75;;;9.80;99.90;;;;;;5053159;28;20487;-47
2021/10/10 02:06:13;;;;;;;12.13;9.07;;;9.80;99.90;;;;;;5054952;28;20052;-46
2021/10/10 02:08:39;;;;;;;12.23;8.85;;;9.80;99.90;;;;;;5055088;28;20021;-46
2021/10/10 02:11:05;;;;;;;11.20;8.82;;;9.80;99.90;;;;;;5055087;28;20071;-46
2021/10/10 02:13:30;;;;;;;14.48;9.60;;;9.80;99.90;;;;;;5054849;28;20025;-47
2021/10/10 02:15:57;;;;;;;11.45;7.80;;;9.80;99.90;;;;;;5055037;28;20116;-48
2021/10/10 02:18:24;;;;;;;16.65;8.45;;;9.80;99.90;;;;;;5054976;28;20041;-47
2021/10/10 02:20:51;;;;;;;10.63;8.38;;;9.80;99.90;;;;;;5054775;28;20036;-47
2021/10/10 02:23:17;;;;;;;12.55;8.23;;;9.80;99.90;;;;;;5055008;28;20032;-46
2021/10/10 02:25:43;;;;;;;12.38;7.18;;;9.70;99.90;;;;;;5054657;28;20037;-47
2021/10/10 02:28:09;;;;;;;10.43;6.93;;;9.70;99.90;;;;;;5019666;28;20052;-46
2021/10/10 02:30:34;;;;;;;15.00;7.85;;;9.60;99.90;;;;;;5047913;28;20053;-46
2021/10/10 02:33:00;;;;;;;10.55;7.90;;;9.60;99.90;;;;;;5016741;28;20033;-46
2021/10/10 02:35:26;;;;;;;9.52;6.35;;;9.60;99.90;;;;;;5019280;28;20040;-46
2021/10/10 02:37:52;;;;;;;9.52;7.22;;;9.50;99.90;;;;;;5054429;28;20029;-46
2021/10/10 02:40:18;;;;;;;12.52;6.45;;;9.60;99.90;;;;;;5054280;28;20508;-46
2021/10/10 02:42:44;;;;;;;8.85;6.32;;;9.60;99.90;;;;;;5018978;28;20072;-47
2021/10/10 02:45:09;;;;;;;9.20;6.25;;;9.70;99.90;;;;;;5054284;28;20068;-47
2021/10/10 02:47:35;;;;;;;7.97;5.68;;;9.60;99.90;;;;;;5045777;28;20020;-46
2021/10/10 02:50:01;;;;;;;8.00;6.03;;;9.70;99.90;;;;;;4999238;28;20477;-46
2021/10/10 02:52:27;;;;;;;12.27;6.50;;;9.70;99.90;;;;;;5023960;28;20424;-46
2021/10/10 02:54:53;;;;;;;11.48;5.63;;;9.70;99.90;;;;;;5009076;28;20140;-46
2021/10/10 02:57:19;;;;;;;8.13;5.53;;;9.70;99.90;;;;;;5041758;28;20021;-47
2021/10/10 02:59:45;;;;;;;11.45;5.78;;;9.70;99.90;;;;;;5051784;28;20056;-46
2021/10/10 03:02:11;;;;;;;9.60;6.15;;;9.60;99.90;;;;;;5054127;28;20028;-46
2021/10/10 03:04:37;;;;;;;7.13;4.82;;;9.70;99.90;;;;;;5053282;28;20350;-47
2021/10/10 03:07:03;;;;;;;8.90;5.88;;;9.60;99.90;;;;;;4985888;28;20345;-47
2021/10/10 03:09:29;;;;;;;9.40;5.70;;;9.60;99.90;;;;;;5053906;28;20103;-46
2021/10/10 03:11:54;;;;;;;7.43;5.20;;;9.60;99.90;;;;;;5053951;28;20029;-46
2021/10/10 03:14:20;;;;;;;7.65;4.65;;;9.60;99.90;;;;;;5018859;28;20049;-46
2021/10/10 03:16:46;;;;;;;8.95;5.38;;;9.60;99.90;;;;;;5053823;28;20166;-46
2021/10/10 03:19:12;;;;;;;10.65;5.47;;;9.50;99.90;;;;;;5053671;28;20357;-46
2021/10/10 03:21:38;;;;;;;8.85;5.78;;;9.60;99.90;;;;;;5053748;28;20025;-46
2021/10/10 03:24:05;;;;;;;9.07;6.75;;;9.60;99.90;;;;;;5018681;28;20033;-46
2021/10/10 03:26:31;;;;;;;11.00;6.80;;;9.70;99.90;;;;;;5053404;28;20090;-46
2021/10/10 03:28:57;;;;;;;9.35;5.85;;;9.70;99.90;;;;;;5053676;28;20032;-46
2021/10/10 03:31:22;;;;;;;10.57;6.60;;;9.80;99.90;;;;;;5053777;28;20075;-46
2021/10/10 03:33:48;;;;;;;10.35;6.70;;;9.70;99.90;;;;;;4985621;28;20043;-46
2021/10/10 03:36:14;;;;;;;10.02;6.78;;;9.70;99.90;;;;;;5018496;28;20036;-46
2021/10/10 03:38:40;;;;;;;10.70;6.15;;;9.70;99.90;;;;;;5053387;28;20445;-46
2021/10/10 03:41:06;;;;;;;10.90;5.68;;;9.60;99.90;;;;;;5053387;28;20032;-46
2021/10/10 03:43:33;;;;;;;10.10;6.22;;;9.60;99.90;;;;;;5018556;28;20072;-46
2021/10/10 03:45:58;;;;;;;9.43;6.20;;;9.60;99.90;;;;;;5052309;28;20039;-46
2021/10/10 03:48:24;;;;;;;8.05;5.70;;;9.60;99.90;;;;;;5049830;28;20986;-46
2021/10/10 03:50:51;;;;;;;11.32;6.68;;;9.50;99.90;;;;;;5053285;28;20078;-46
2021/10/10 03:53:17;;;;;;;8.68;5.55;;;9.60;99.90;;;;;;5053173;28;20048;-46
2021/10/10 03:55:42;;;;;;;8.77;5.90;;;9.50;99.90;;;;;;5053066;28;20029;-46
2021/10/10 03:58:09;;;;;;;11.25;6.60;;;9.60;99.90;;;;;;5053431;28;20025;-46
2021/10/10 04:00:37;;;;;;;8.00;5.72;;;9.60;99.90;;;;;;5052993;28;20079;-46
2021/10/10 04:03:06;;;;;;;10.48;6.18;;;9.50;99.90;;;;;;5053329;28;20044;-47
2021/10/10 04:07:59;;;;;;;11.60;6.25;;;9.60;99.90;;;;;;5053263;28;20032;-46
2021/10/10 04:10:25;;;;;;;6.95;5.40;;;9.60;99.90;;;;;;5052864;28;20032;-47
2021/10/10 04:12:51;;;;;;;8.52;5.82;;;9.50;99.90;;;;;;5035350;28;20404;-46
2021/10/10 04:15:17;;;;;;;9.82;6.07;;;9.50;99.90;;;;;;5053249;28;20029;-46
2021/10/10 04:17:44;;;;;;;11.77;6.35;;;9.50;99.90;;;;;;5055748;28;20029;-47
2021/10/10 04:20:12;;;;;;;10.07;5.30;;;9.60;99.90;;;;;;5057020;28;20032;-46
2021/10/10 04:22:40;;;;;;;10.32;6.60;;;9.50;99.90;;;;;;5057334;28;20548;-46
2021/10/10 04:25:06;;;;;;;10.57;5.78;;;9.50;99.90;;;;;;5057197;28;20381;-49
2021/10/10 04:27:34;;;;;;;10.40;7.10;;;9.50;99.90;;;;;;5005496;28;20092;-46
2021/10/10 04:30:04;;;;;;;9.35;6.18;;;9.50;99.90;;;;;;5056745;28;20033;-46
2021/10/10 04:32:30;;;;;;;10.85;6.40;;;9.40;99.90;;;;;;5021457;28;20041;-47
2021/10/10 04:34:55;;;;;;;8.60;5.47;;;9.50;99.90;;;;;;5056544;28;20032;-46
2021/10/10 04:37:21;;;;;;;11.43;6.43;;;9.40;99.90;;;;;;5056861;28;20052;-46
2021/10/10 04:39:47;;;;;;;10.80;6.35;;;9.40;99.90;;;;;;5021405;28;20041;-47
2021/10/10 04:42:12;;;;;;;10.48;6.53;;;9.50;99.90;;;;;;4988351;28;20037;-46
2021/10/10 04:44:38;;;;;;;13.48;7.72;;;9.50;99.90;;;;;;5056374;28;20116;-46
2021/10/10 04:47:05;;;;;;;13.32;7.18;;;9.50;99.90;;;;;;5039743;28;20516;-46
2021/10/10 04:49:34;;;;;;;13.60;6.88;;;9.50;99.90;;;;;;5057155;28;20483;-46
2021/10/10 04:52:02;;;;;;;17.58;8.63;;;9.50;99.90;;;;;;5032744;28;20042;-58
2021/10/10 04:54:28;;;;;;;11.68;7.85;;;9.50;99.90;;;;;;5037018;28;20073;-46
2021/10/10 04:56:55;;;;;;;14.57;7.95;;;9.40;99.90;;;;;;5037009;28;20029;-51
2021/10/10 04:59:20;;;;;;;14.32;8.30;;;9.50;99.90;;;;;;5037933;28;20048;-46
2021/10/10 05:01:46;;;;;;;12.32;8.02;;;9.50;99.90;;;;;;5049913;28;20510;-46
2021/10/10 05:04:12;;;;;;;14.32;8.20;;;9.50;99.90;;;;;;5007143;28;20048;-46
2021/10/10 05:06:37;;;;;;;12.25;8.55;;;9.50;99.90;;;;;;5036933;28;20070;-46
2021/10/10 05:09:03;;;;;;;13.07;8.95;;;9.50;99.90;;;;;;5018737;28;20040;-46
2021/10/10 05:11:29;;;;;;;11.68;8.85;;;9.50;99.90;;;;;;4986099;28;20037;-46
2021/10/10 05:13:55;;;;;;;15.30;9.63;;;9.50;99.90;;;;;;5018125;28;20438;-46
2021/10/10 05:16:20;;;;;;;13.90;9.68;;;9.50;99.90;;;;;;5036328;28;20053;-46
2021/10/10 05:18:46;;;;;;;12.52;8.20;;;9.50;99.90;;;;;;5036145;28;20056;-46
2021/10/10 05:21:12;;;;;;;17.38;9.82;;;9.50;99.90;;;;;;5036151;28;20480;-46
2021/10/10 05:23:38;;;;;;;18.90;9.48;;;9.50;99.90;;;;;;5036595;28;20033;-46
2021/10/10 05:26:03;;;;;;;13.85;9.90;;;9.50;99.90;;;;;;4984570;28;20049;-46
2021/10/10 05:28:29;;;;;;;14.45;10.02;;;9.50;99.90;;;;;;5016568;28;20492;-46
2021/10/10 05:30:55;;;;;;;16.67;9.73;;;9.50;99.90;;;;;;5007299;28;20032;-46
2021/10/10 05:33:21;;;;;;;16.60;10.20;;;9.50;99.90;;;;;;4987922;28;20033;-47
2021/10/10 05:35:46;;;;;;;17.98;11.48;;;9.50;99.90;;;;;;5020580;28;20063;-46
2021/10/10 05:38:13;;;;;;;16.40;9.63;;;9.50;99.90;;;;;;5056005;28;20064;-46
2021/10/10 05:40:39;;;;;;;18.27;11.30;;;9.40;99.90;;;;;;5003886;28;20086;-47
2021/10/10 05:43:05;;;;;;;19.45;10.68;;;9.40;99.90;;;;;;4987684;28;20124;-46
2021/10/10 05:45:31;;;;;;;15.45;10.25;;;9.40;99.90;;;;;;5020601;28;20049;-46
2021/10/10 05:47:57;;;;;;;20.25;10.95;;;9.40;99.90;;;;;;5055362;28;20025;-45
2021/10/10 05:50:23;;;;;;;13.82;11.20;;;9.40;99.90;;;;;;4987557;28;20469;-46
2021/10/10 05:52:50;;;;;;;21.13;12.07;;;9.40;99.90;;;;;;5055242;28;20159;-47
2021/10/10 05:55:17;;;;;;;17.52;11.75;;;9.40;99.90;;;;;;5055363;28;20036;-46
2021/10/10 05:57:47;;;;;;;18.10;10.93;;;9.50;99.90;;;;;;5055444;28;20099;-46
2021/10/10 06:00:14;;;;;;;17.45;10.80;;;9.50;99.90;;;;;;5055476;28;20033;-47
2021/10/10 06:02:48;;;;;;;20.48;12.00;;;9.50;99.90;;;;;;5055069;28;20085;-46
2021/10/10 06:05:15;;;;;;;17.98;10.75;;;9.40;99.90;;;;;;5054224;28;20094;-46
2021/10/10 06:07:41;;;;;;;17.70;11.93;;;9.50;99.90;;;;;;5054134;28;20082;-47
2021/10/10 06:10:08;;;;;;;17.50;10.80;;;9.50;99.90;;;;;;5002317;28;20386;-46
2021/10/10 06:12:36;;;;;;;17.95;11.77;;;9.50;99.90;;;;;;5018888;28;20037;-47
2021/10/10 06:15:04;;;;;;;20.35;13.02;;;9.30;99.90;;;;;;5053712;28;20488;-46
2021/10/10 06:17:31;;;;;;;19.65;10.80;;;9.30;99.90;;;;;;5018733;28;20079;-46
2021/10/10 06:19:59;;;;;;;18.88;12.02;;;9.30;99.90;;;;;;5018448;28;20040;-46
2021/10/10 06:22:24;;;;;;;17.85;12.32;;;9.30;99.90;;;;;;5053763;28;20029;-47
2021/10/10 06:24:50;;;;;;;17.65;11.15;;;9.40;99.90;;;;;;5018202;28;20063;-46
2021/10/10 06:27:17;;;;;;;18.63;12.20;;;9.40;99.90;;;;;;5034834;28;20033;-47
2021/10/10 06:29:47;;;;;;;20.40;11.93;;;9.30;99.90;;;;;;5053569;28;20037;-46
2021/10/10 06:32:13;;;;;;;20.25;11.15;;;9.40;99.90;;;;;;5011841;28;20120;-46
2021/10/10 06:34:39;;;;;;;17.48;11.13;;;9.40;99.90;;;;;;5014922;28;20030;-46
2021/10/10 06:37:04;;;;;;;24.48;12.85;;;9.30;99.90;;;;;;5030499;28;20148;-46
2021/10/10 06:39:33;;;;;;;14.68;10.57;;;9.40;99.90;;;;;;5033564;28;20026;-46
2021/10/10 06:41:59;;;;;;;17.88;11.15;;;9.30;99.90;;;;;;5033395;28;20078;-46
2021/10/10 06:44:25;;;;;;;16.83;10.75;;;9.30;99.90;;;;;;5014487;28;20049;-46
2021/10/10 06:46:50;;;;;;;14.98;10.32;;;9.30;99.90;;;;;;5033361;28;20492;-46
2021/10/10 06:49:16;;;;;;;16.40;10.95;;;9.30;99.90;;;;;;5033251;28;20033;-47
2021/10/10 06:51:42;;;;;;;17.70;10.48;;;9.20;99.90;;;;;;5045273;28;20057;-47
2021/10/10 06:54:08;;;;;;;18.20;10.85;;;9.30;99.90;;;;;;5043425;28;20041;-47
2021/10/10 06:56:34;;;;;;;18.17;9.18;;;9.30;99.90;;;;;;5047931;28;20103;-48
2021/10/10 06:59:00;;;;;;;17.23;9.45;;;9.30;99.90;;;;;;5041104;28;20396;-47
2021/10/10 07:01:26;;;;;;;14.05;8.80;;;9.30;99.90;;;;;;5033129;28;20037;-47
2021/10/10 07:03:52;;;;;;;17.00;10.75;;;9.30;99.90;;;;;;5033030;28;20423;-48
2021/10/10 07:06:18;;;;;;;19.02;10.30;;;9.20;99.90;;;;;;5014394;28;20486;-47
2021/10/10 07:08:44;;;;;;;18.25;11.05;;;9.30;99.90;;;;;;5032825;28;20025;-47
2021/10/10 07:11:10;;;;;;;16.27;10.93;;;9.20;99.90;;;;;;5032807;28;20084;-47
2021/10/10 07:13:35;;;;;;;18.63;11.55;;;9.30;99.90;;;;;;4997700;28;20037;-47
2021/10/10 07:16:01;;;;;;;19.23;11.52;;;9.40;99.90;;;;;;5032898;28;20380;-48
2021/10/10 07:18:31;;;;;;;14.15;11.13;;;9.40;99.90;;;;;;5014321;28;20037;-47
2021/10/10 07:26:24;;;;;;;17.65;10.27;;;9.50;99.90;;;;;;5016280;28;20055;-48
2021/10/10 07:28:52;;;;;;;12.50;9.10;;;9.60;99.90;;;;;;5042157;28;20394;-48
2021/10/10 07:31:19;;;;;;;13.38;9.57;;;9.60;99.90;;;;;;5005160;28;20037;-48
2021/10/10 07:33:44;;;;;;;17.52;10.82;;;9.40;99.90;;;;;;5040404;28;20472;-48
2021/10/10 07:36:11;;;;;;;15.95;9.18;;;9.40;99.90;;;;;;5026182;28;20037;-48
2021/10/10 07:38:37;;;;;;;16.45;10.52;;;9.50;99.90;;;;;;5033338;28;20029;-48
2021/10/10 07:41:04;;;;;;;20.33;12.68;;;9.50;99.90;;;;;;5020871;28;20053;-49
2021/10/10 07:43:31;;;;;;;21.48;13.45;;;9.60;99.90;;;;;;5041456;28;20067;-49
2021/10/10 07:46:10;;;;;;;23.65;11.75;;;9.60;99.90;;;;;;5042821;28;20029;-49
2021/10/10 07:48:36;;;;;;;24.48;10.75;;;9.60;99.90;;;;;;5045306;28;20380;-50
2021/10/10 07:51:03;;;;;;;18.15;10.98;;;9.60;99.90;;;;;;5040977;28;20105;-49
2021/10/10 07:53:29;;;;;;;18.88;11.20;;;9.60;99.90;;;;;;5040534;28;20060;-49
2021/10/10 07:55:55;;;;;;;15.00;10.27;;;9.70;99.90;;;;;;5041989;28;20490;-49
2021/10/10 07:58:21;;;;;;;19.38;11.70;;;9.60;99.90;;;;;;5002654;28;20064;-50
2021/10/10 08:00:47;;;;;;;21.42;11.65;;;9.70;99.90;;;;;;5029289;28;20029;-49
2021/10/10 08:03:12;;;;;;;20.02;10.55;;;9.70;99.90;;;;;;5025931;28;20044;-49
2021/10/10 08:05:41;;;;;;;21.80;12.05;;;9.70;99.90;;;;;;5051861;28;20036;-49
2021/10/10 08:08:08;;;;;;;18.23;11.55;;;9.80;99.90;;;;;;5033809;28;20037;-49
2021/10/10 08:10:34;;;;;;;19.50;11.57;;;9.80;99.90;;;;;;5029570;28;20049;-49
2021/10/10 08:13:00;;;;;;;19.73;12.20;;;9.90;99.90;;;;;;5031619;28;20047;-50
2021/10/10 08:15:27;;;;;;;21.05;10.95;;;9.90;99.90;;;;;;5044496;28;20029;-49
2021/10/10 08:17:53;;;;;;;19.92;9.32;;;9.90;99.90;;;;;;5050418;28;20040;-49
2021/10/10 08:20:19;;;;;;;19.27;10.57;;;9.80;99.90;;;;;;5051956;28;20406;-49
2021/10/10 08:22:47;;;;;;;17.15;9.90;;;9.90;99.90;;;;;;5051911;28;20048;-49
2021/10/10 08:25:13;;;;;;;23.95;11.30;;;9.80;99.90;;;;;;5017162;28;20093;-49
2021/10/10 08:27:44;;;;;;;19.50;10.63;;;10.00;99.90;;;;;;5048575;28;20029;-49
2021/10/10 08:30:12;;;;;;;16.65;9.65;;;10.00;99.90;;;;;;5040230;28;20461;-49
2021/10/10 08:32:39;;;;;;;17.50;9.50;;;10.10;99.90;;;;;;5033324;28;20021;-50
2021/10/10 08:35:06;;;;;;;17.70;10.45;;;10.20;99.90;;;;;;5016963;28;20037;-49
2021/10/10 08:37:33;;;;;;;13.80;8.82;;;10.10;99.90;;;;;;4986011;28;20095;-49
2021/10/10 08:39:59;;;;;;;16.65;10.48;;;10.20;99.90;;;;;;5045062;28;20021;-50
2021/10/10 08:42:31;;;;;;;20.50;10.75;;;10.20;99.90;;;;;;5022885;28;20049;-49
2021/10/10 08:45:21;;;;;;;;;;;10.10;99.90;;;;;;5033544;28;20040;-49
2021/10/10 08:47:44;;;;;;;31.23;20.48;;;10.00;99.90;;;;;;5032598;28;19905;-49
2021/10/10 08:50:13;;;;;;;33.80;23.88;;;10.10;99.90;;;;;;5014451;28;20041;-49
2021/10/10 08:52:40;;;;;;;53.60;33.72;;;10.10;99.90;;;;;;5032393;28;20527;-50
2021/10/10 08:55:06;;;;;;;27.42;16.92;;;10.20;99.90;;;;;;5032859;28;20048;-49
2021/10/10 08:57:33;;;;;;;24.10;12.80;;;10.20;99.90;;;;;;5047581;28;20366;-49
2021/10/10 09:00:05;;;;;;;22.85;15.07;;;10.20;99.90;;;;;;5041309;28;20036;-49
2021/10/10 09:02:32;;;;;;;;;;;10.10;99.90;;;;;;5036147;28;20056;-49
2021/10/10 09:05:03;;;;;;;20.73;13.55;;;10.10;99.90;;;;;;5053621;28;20421;-49
2021/10/10 09:07:29;;;;;;;133.00;49.37;;;10.20;99.90;;;;;;5053398;28;20500;-50
2021/10/10 09:09:58;;;;;;;28.70;16.88;;;10.20;99.90;;;;;;5042866;28;20028;-49
2021/10/10 09:12:28;;;;;;;19.70;10.43;;;10.10;99.90;;;;;;5045266;28;20069;-49
2021/10/10 09:14:54;;;;;;;26.40;11.63;;;10.20;99.90;;;;;;5045088;28;20068;-49
2021/10/10 09:17:23;;;;;;;20.75;10.90;;;10.20;99.90;;;;;;5044177;28;20053;-49
2021/10/10 09:19:54;;;;;;;33.80;15.63;;;10.30;99.90;;;;;;5045520;28;20071;-50
2021/10/10 09:22:22;;;;;;;24.48;11.02;;;10.40;99.90;;;;;;5030291;28;20041;-49
2021/10/10 09:24:53;;;;;;;29.45;14.55;;;10.30;99.90;;;;;;4983352;28;20064;-49
2021/10/10 09:27:20;;;;;;;28.58;15.57;;;10.40;99.90;;;;;;5036092;28;20025;-49
2021/10/10 09:29:49;;;;;;;19.83;9.95;;;10.50;99.90;;;;;;5036169;28;20104;-51
2021/10/10 09:32:19;;;;;;;19.23;12.45;;;10.40;99.90;;;;;;5036726;28;20078;-51
2021/10/10 09:34:47;;;;;;;19.30;10.82;;;10.50;99.90;;;;;;5052129;28;20369;-48
2021/10/10 09:39:57;;;;;;;21.83;10.00;;;10.40;99.90;;;;;;5013634;28;20034;-49
2021/10/10 09:42:38;;;;;;;17.95;9.70;;;10.30;99.90;;;;;;5013708;28;20046;-48
2021/10/10 09:47:58;;;;;;;24.08;10.23;;;10.40;99.90;;;;;;4974674;28;20035;-49
2021/10/10 09:50:27;;;;;;;15.05;9.32;;;10.50;99.90;;;;;;4955259;29;20047;-49
2021/10/10 09:53:12;;;;;;;20.95;10.68;;;10.50;99.90;;;;;;4922938;29;20035;-49
2021/10/10 09:55:57;;;;;;;18.98;10.48;;;10.60;99.90;;;;;;4955402;29;20074;-51
2021/10/10 09:58:40;;;;;;;15.75;9.25;;;10.60;99.90;;;;;;4955120;29;20515;-49
2021/10/10 10:01:17;;;;;;;;;;;10.60;99.90;;;;;;4955933;29;20074;-49
2021/10/10 10:04:03;;;;;;;20.13;9.38;;;10.70;99.90;;;;;;4955105;28;19906;-50
2021/10/10 10:06:48;;;;;;;13.90;9.20;;;10.80;99.90;;;;;;4954862;28;20067;-49
2021/10/10 10:09:14;;;;;;;17.85;9.40;;;10.80;99.90;;;;;;4990585;28;20042;-48
2021/10/10 10:11:44;;;;;;;17.73;9.15;;;10.80;99.90;;;;;;4993790;28;20109;-49
2021/10/10 10:14:16;;;;;;;15.70;8.32;;;10.70;99.90;;;;;;4976904;28;20041;-48
2021/10/10 10:16:49;;;;;;;19.10;9.85;;;10.70;99.90;;;;;;4988787;28;20034;-48
2021/10/10 10:19:19;;;;;;;16.42;8.18;;;10.80;99.90;;;;;;4975054;28;20036;-48
2021/10/10 10:21:52;;;;;;;18.42;8.63;;;10.70;99.90;;;;;;4991955;28;20073;-48
2021/10/10 10:24:20;;;;;;;20.15;9.60;;;10.80;99.90;;;;;;4953255;28;20042;-49
2021/10/10 10:26:47;;;;;;;15.82;9.10;;;10.80;99.90;;;;;;4939145;28;20034;-48
2021/10/10 10:29:25;;;;;;;15.65;9.13;;;11.00;99.90;;;;;;5045815;28;20025;-48
2021/10/10 10:31:56;;;;;;;18.33;10.50;;;11.00;99.90;;;;;;5055015;28;20036;-49
2021/10/10 10:34:23;;;;;;;19.85;9.93;;;10.90;99.90;;;;;;5019768;28;20563;-48
2021/10/10 10:36:49;;;;;;;19.90;10.40;;;10.90;99.90;;;;;;5035981;28;20051;-48
2021/10/10 10:39:41;;;;;;;17.80;10.00;;;10.90;99.90;;;;;;5035989;28;20112;-49
2021/10/10 10:42:11;;;;;;;;;;;10.90;99.90;;;;;;4998364;28;20152;-48
2021/10/10 10:44:41;;;;;;;13.10;7.60;;;10.90;99.90;;;;;;4998742;28;19945;-49
2021/10/10 10:47:14;;;;;;;16.17;7.93;;;10.90;99.90;;;;;;5030859;28;20034;-48
2021/10/10 10:49:56;;;;;;;13.77;7.20;;;10.90;99.90;;;;;;4992380;28;20400;-48
2021/10/10 10:52:37;;;;;;;14.80;9.05;;;10.80;99.90;;;;;;5013837;28;20049;-48
2021/10/10 10:55:16;;;;;;;12.60;7.95;;;10.90;99.90;;;;;;5029396;28;20041;-48
2021/10/10 10:57:51;;;;;;;13.98;8.75;;;11.00;99.90;;;;;;5029856;28;20164;-48
2021/10/10 11:00:21;;;;;;;15.68;9.20;;;11.00;99.90;;;;;;5030063;28;20041;-48
2021/10/10 11:02:58;;;;;;;15.43;7.13;;;11.10;99.90;;;;;;5031818;28;20065;-48
2021/10/10 11:05:33;;;;;;;21.63;9.00;;;11.10;99.90;;;;;;5028217;28;20037;-48
2021/10/10 11:08:05;;;;;;;16.75;9.05;;;11.20;99.90;;;;;;5012544;28;20145;-48
2021/10/10 11:10:31;;;;;;;;;;;11.20;99.90;;;;;;5021255;28;20037;-46
2021/10/10 11:13:03;;;;;;;17.90;10.23;;;11.20;99.90;;;;;;5032311;28;19913;-47
2021/10/10 11:15:55;;;;;;;16.60;8.30;;;11.20;99.90;;;;;;5042489;28;20037;-49
2021/10/10 11:18:23;;;;;;;13.60;8.27;;;11.20;99.90;;;;;;5048437;28;20033;-49
2021/10/10 11:20:53;;;;;;;14.93;8.70;;;11.20;99.90;;;;;;5051993;28;20044;-49
2021/10/10 11:23:20;;;;;;;15.02;7.63;;;11.20;99.90;;;;;;5023786;28;20040;-49
2021/10/10 11:25:49;;;;;;;16.23;9.75;;;11.30;99.90;;;;;;5053164;28;20045;-48
2021/10/10 11:28:32;;;;;;;15.20;8.32;;;11.30;99.90;;;;;;5053191;28;20044;-48
2021/10/10 11:31:10;;;;;;;14.10;7.40;;;11.20;99.90;;;;;;5049726;28;20029;-49
2021/10/10 11:33:38;;;;;;;11.15;6.30;;;11.20;99.90;;;;;;5044011;28;20075;-48
2021/10/10 11:36:04;;;;;;;10.07;6.72;;;11.30;99.90;;;;;;5045565;28;20029;-49
2021/10/10 11:38:49;;;;;;;16.80;8.75;;;11.30;99.90;;;;;;5052014;28;20021;-49
2021/10/10 11:41:15;;;;;;;15.18;7.55;;;11.30;99.90;;;;;;5044857;28;20017;-49
2021/10/10 11:43:55;;;;;;;8.68;5.47;;;11.30;99.90;;;;;;5042801;28;20025;-48
2021/10/10 11:46:21;;;;;;;11.88;6.38;;;11.20;99.90;;;;;;5044076;28;20040;-48
2021/10/10 11:48:52;;;;;;;15.02;7.68;;;11.20;99.90;;;;;;5015672;28;20052;-48
2021/10/10 11:51:26;;;;;;;14.25;8.75;;;11.30;99.90;;;;;;5052674;28;20033;-48
2021/10/10 11:53:52;;;;;;;16.45;8.48;;;11.30;99.90;;;;;;5050840;28;20465;-49
2021/10/10 11:56:18;;;;;;;18.60;10.32;;;11.30;99.90;;;;;;5015043;28;20044;-49
2021/10/10 11:58:45;;;;;;;15.57;8.45;;;11.40;99.90;;;;;;5000911;28;20049;-49
2021/10/10 12:01:12;;;;;;;12.32;7.10;;;11.50;99.90;;;;;;5053443;28;20035;-48
2021/10/10 12:03:43;;;;;;;15.63;7.10;;;11.50;99.90;;;;;;5018218;28;20037;-48
2021/10/10 12:06:17;;;;;;;16.05;7.53;;;11.50;99.90;;;;;;5053064;28;20555;-48
2021/10/10 12:08:43;;;;;;;12.63;7.72;;;11.60;99.90;;;;;;5018438;28;20423;-48
2021/10/10 12:11:09;;;;;;;13.98;7.18;;;11.60;99.90;;;;;;5018212;28;20029;-48
2021/10/10 12:13:35;;;;;;;13.32;8.40;;;11.60;99.90;;;;;;5053035;28;20029;-48
2021/10/10 12:16:04;;;;;;;13.52;8.20;;;11.60;99.90;;;;;;5053181;28;20032;-48
2021/10/10 12:18:33;;;;;;;14.60;7.68;;;11.60;99.90;;;;;;5053246;28;20025;-49
2021/10/10 12:21:20;;;;;;;12.32;7.72;;;11.60;99.90;;;;;;5053010;28;20111;-49
2021/10/10 12:23:45;;;;;;;12.85;7.03;;;11.70;99.90;;;;;;5053158;28;20021;-49
2021/10/10 12:26:13;;;;;;;14.38;7.13;;;11.70;99.90;;;;;;5018102;28;20056;-49
2021/10/10 12:28:39;;;;;;;10.02;6.10;;;11.70;99.90;;;;;;5053255;28;20071;-49
2021/10/10 12:31:05;;;;;;;13.98;7.10;;;11.70;99.90;;;;;;5053376;28;20048;-50
2021/10/10 12:33:40;;;;;;;11.07;6.07;;;11.70;99.90;;;;;;5053038;28;20090;-49
2021/10/10 12:36:10;;;;;;;8.48;6.10;;;11.70;99.90;;;;;;5050976;28;20457;-48
2021/10/10 12:38:54;;;;;;;8.82;5.15;;;11.60;99.90;;;;;;5013551;28;20056;-49
2021/10/10 12:41:19;;;;;;;8.40;5.65;;;11.60;99.90;;;;;;5047388;28;20021;-49
2021/10/10 12:43:50;;;;;;;5.85;4.07;;;11.60;99.90;;;;;;5050085;28;20483;-49
2021/10/10 12:46:19;;;;;;;9.95;5.47;;;11.50;99.90;;;;;;5048239;28;20036;-49
2021/10/10 12:49:06;;;;;;;8.35;5.13;;;11.60;99.90;;;;;;5041638;28;20457;-48
2021/10/10 12:51:34;;;;;;;10.80;5.68;;;11.70;99.90;;;;;;5037139;28;20040;-49
2021/10/10 12:54:37;;;;;;;7.78;4.75;;;11.70;99.90;;;;;;5036552;28;20084;-48
2021/10/10 12:57:02;;;;;;;;;;;11.60;99.90;;;;;;4975981;28;20042;-46
2021/10/10 12:59:28;;;;;;;6.60;4.32;;;11.60;99.90;;;;;;4980368;28;19965;-49